sensor_id;sensor_type;location;lat;lon;timestamp;P1;durP1;ratioP1;P2;durP2;ratioP2
12623;SDS011;6377;42.836;23.998;2023-02-19T00:01:00;101.13;;;54.43;;
12623;SDS011;6377;42.836;23.998;2023-02-19T00:03:32;273.27;;;134.00;;
12623;SDS011;6377;42.836;23.998;2023-02-19T00:06:01;167.33;;;84.57;;
12623;SDS011;6377;42.836;23.998;2023-02-19T00:08:29;164.63;;;80.10;;
12623;SDS011;6377;42.836;23.998;2023-02-19T00:10:59;160.80;;;74.13;;
12623;SDS011;6377;42.836;23.998;2023-02-19T00:13:27;190.50;;;83.47;;
12623;SDS011;6377;42.836;23.998;2023-02-19T00:15:54;131.93;;;61.47;;
12623;SDS011;6377;42.836;23.998;2023-02-19T00:18:22;121.47;;;56.20;;
12623;SDS011;6377;42.836;23.998;2023-02-19T00:20:49;116.23;;;56.47;;
12623;SDS011;6377;42.836;23.998;2023-02-19T00:23:18;120.07;;;54.03;;
12623;SDS011;6377;42.836;23.998;2023-02-19T00:25:45;81.70;;;44.17;;
12623;SDS011;6377;42.836;23.998;2023-02-19T00:28:12;90.53;;;46.57;;
12623;SDS011;6377;42.836;23.998;2023-02-19T00:30:40;65.17;;;38.67;;
12623;SDS011;6377;42.836;23.998;2023-02-19T00:33:07;95.67;;;44.67;;
12623;SDS011;6377;42.836;23.998;2023-02-19T00:35:34;106.93;;;52.07;;
12623;SDS011;6377;42.836;23.998;2023-02-19T00:38:02;141.73;;;65.07;;
12623;SDS011;6377;42.836;23.998;2023-02-19T00:40:31;128.03;;;58.83;;
12623;SDS011;6377;42.836;23.998;2023-02-19T00:42:58;130.87;;;61.87;;
12623;SDS011;6377;42.836;23.998;2023-02-19T00:45:25;138.80;;;61.17;;
12623;SDS011;6377;42.836;23.998;2023-02-19T00:47:52;136.37;;;62.93;;
12623;SDS011;6377;42.836;23.998;2023-02-19T00:50:19;127.07;;;60.80;;
12623;SDS011;6377;42.836;23.998;2023-02-19T00:52:47;119.47;;;60.20;;
12623;SDS011;6377;42.836;23.998;2023-02-19T00:55:14;118.10;;;56.47;;
12623;SDS011;6377;42.836;23.998;2023-02-19T00:57:43;116.43;;;58.33;;
12623;SDS011;6377;42.836;23.998;2023-02-19T01:00:10;132.63;;;65.07;;
12623;SDS011;6377;42.836;23.998;2023-02-19T01:02:38;126.27;;;66.30;;
12623;SDS011;6377;42.836;23.998;2023-02-19T01:05:05;99.80;;;49.77;;
12623;SDS011;6377;42.836;23.998;2023-02-19T01:07:34;91.20;;;47.47;;
12623;SDS011;6377;42.836;23.998;2023-02-19T01:10:01;64.07;;;35.10;;
12623;SDS011;6377;42.836;23.998;2023-02-19T01:12:29;66.80;;;35.97;;
12623;SDS011;6377;42.836;23.998;2023-02-19T01:14:58;55.83;;;31.50;;
12623;SDS011;6377;42.836;23.998;2023-02-19T01:17:26;52.70;;;26.47;;
12623;SDS011;6377;42.836;23.998;2023-02-19T01:19:53;41.83;;;26.57;;
12623;SDS011;6377;42.836;23.998;2023-02-19T01:22:20;45.17;;;27.07;;
12623;SDS011;6377;42.836;23.998;2023-02-19T01:24:47;46.80;;;26.60;;
12623;SDS011;6377;42.836;23.998;2023-02-19T01:27:14;65.97;;;36.37;;
12623;SDS011;6377;42.836;23.998;2023-02-19T01:29:41;72.07;;;37.80;;
12623;SDS011;6377;42.836;23.998;2023-02-19T01:32:10;82.10;;;41.90;;
12623;SDS011;6377;42.836;23.998;2023-02-19T01:34:37;73.63;;;39.03;;
12623;SDS011;6377;42.836;23.998;2023-02-19T01:37:05;57.67;;;31.43;;
12623;SDS011;6377;42.836;23.998;2023-02-19T01:39:36;42.90;;;24.00;;
12623;SDS011;6377;42.836;23.998;2023-02-19T01:42:03;38.10;;;22.20;;
12623;SDS011;6377;42.836;23.998;2023-02-19T01:47:39;44.47;;;25.87;;
12623;SDS011;6377;42.836;23.998;2023-02-19T01:50:06;32.80;;;19.47;;
12623;SDS011;6377;42.836;23.998;2023-02-19T01:52:34;31.53;;;17.50;;
12623;SDS011;6377;42.836;23.998;2023-02-19T01:55:03;71.23;;;31.97;;
12623;SDS011;6377;42.836;23.998;2023-02-19T01:57:36;36.20;;;19.27;;
12623;SDS011;6377;42.836;23.998;2023-02-19T02:00:08;31.33;;;17.57;;
12623;SDS011;6377;42.836;23.998;2023-02-19T02:02:38;28.67;;;15.80;;
12623;SDS011;6377;42.836;23.998;2023-02-19T02:05:08;30.63;;;17.77;;
12623;SDS011;6377;42.836;23.998;2023-02-19T02:07:43;29.07;;;16.97;;
12623;SDS011;6377;42.836;23.998;2023-02-19T02:10:27;30.80;;;16.70;;
12623;SDS011;6377;42.836;23.998;2023-02-19T02:12:56;19.70;;;11.07;;
12623;SDS011;6377;42.836;23.998;2023-02-19T02:15:24;19.83;;;11.30;;
12623;SDS011;6377;42.836;23.998;2023-02-19T02:17:58;17.53;;;10.70;;
12623;SDS011;6377;42.836;23.998;2023-02-19T02:20:36;12.53;;;8.07;;
12623;SDS011;6377;42.836;23.998;2023-02-19T02:23:20;15.33;;;9.33;;
12623;SDS011;6377;42.836;23.998;2023-02-19T02:26:03;18.77;;;11.10;;
12623;SDS011;6377;42.836;23.998;2023-02-19T02:28:47;24.33;;;15.17;;
12623;SDS011;6377;42.836;23.998;2023-02-19T02:31:34;36.60;;;22.00;;
12623;SDS011;6377;42.836;23.998;2023-02-19T02:34:06;32.23;;;19.47;;
12623;SDS011;6377;42.836;23.998;2023-02-19T02:36:38;42.37;;;21.63;;
12623;SDS011;6377;42.836;23.998;2023-02-19T02:39:08;24.07;;;13.97;;
12623;SDS011;6377;42.836;23.998;2023-02-19T02:41:40;22.47;;;13.80;;
12623;SDS011;6377;42.836;23.998;2023-02-19T02:44:09;41.50;;;23.07;;
12623;SDS011;6377;42.836;23.998;2023-02-19T02:46:38;39.77;;;24.40;;
12623;SDS011;6377;42.836;23.998;2023-02-19T02:49:11;29.97;;;19.93;;
12623;SDS011;6377;42.836;23.998;2023-02-19T02:51:44;42.20;;;23.23;;
12623;SDS011;6377;42.836;23.998;2023-02-19T02:54:17;56.40;;;32.00;;
12623;SDS011;6377;42.836;23.998;2023-02-19T02:57:06;80.07;;;40.53;;
12623;SDS011;6377;42.836;23.998;2023-02-19T02:59:39;44.00;;;23.60;;
12623;SDS011;6377;42.836;23.998;2023-02-19T03:02:10;38.13;;;22.37;;
12623;SDS011;6377;42.836;23.998;2023-02-19T03:04:42;50.00;;;26.20;;
12623;SDS011;6377;42.836;23.998;2023-02-19T03:07:32;36.33;;;21.00;;
12623;SDS011;6377;42.836;23.998;2023-02-19T03:10:04;39.37;;;22.27;;
12623;SDS011;6377;42.836;23.998;2023-02-19T03:12:36;62.73;;;33.40;;
12623;SDS011;6377;42.836;23.998;2023-02-19T03:15:23;57.77;;;31.10;;
12623;SDS011;6377;42.836;23.998;2023-02-19T03:18:13;57.83;;;31.00;;
12623;SDS011;6377;42.836;23.998;2023-02-19T03:21:09;75.67;;;41.07;;
12623;SDS011;6377;42.836;23.998;2023-02-19T03:23:37;70.90;;;37.07;;
12623;SDS011;6377;42.836;23.998;2023-02-19T03:26:21;62.40;;;34.73;;
12623;SDS011;6377;42.836;23.998;2023-02-19T03:28:51;67.93;;;35.80;;
12623;SDS011;6377;42.836;23.998;2023-02-19T03:31:37;66.07;;;35.83;;
12623;SDS011;6377;42.836;23.998;2023-02-19T03:34:09;67.60;;;35.93;;
12623;SDS011;6377;42.836;23.998;2023-02-19T03:36:41;56.53;;;34.17;;
12623;SDS011;6377;42.836;23.998;2023-02-19T03:39:11;50.53;;;30.33;;
12623;SDS011;6377;42.836;23.998;2023-02-19T03:41:45;42.97;;;24.70;;
12623;SDS011;6377;42.836;23.998;2023-02-19T03:44:20;52.10;;;28.90;;
12623;SDS011;6377;42.836;23.998;2023-02-19T03:46:53;55.80;;;29.20;;
12623;SDS011;6377;42.836;23.998;2023-02-19T03:49:31;48.97;;;27.33;;
12623;SDS011;6377;42.836;23.998;2023-02-19T03:52:09;51.90;;;26.17;;
12623;SDS011;6377;42.836;23.998;2023-02-19T03:54:42;48.57;;;28.27;;
12623;SDS011;6377;42.836;23.998;2023-02-19T03:57:19;51.73;;;29.90;;
12623;SDS011;6377;42.836;23.998;2023-02-19T03:59:53;56.17;;;30.60;;
12623;SDS011;6377;42.836;23.998;2023-02-19T04:02:26;62.67;;;32.03;;
12623;SDS011;6377;42.836;23.998;2023-02-19T04:05:01;55.37;;;28.73;;
12623;SDS011;6377;42.836;23.998;2023-02-19T04:07:33;53.80;;;28.93;;
12623;SDS011;6377;42.836;23.998;2023-02-19T04:10:04;45.83;;;25.97;;
12623;SDS011;6377;42.836;23.998;2023-02-19T04:12:33;37.37;;;22.37;;
12623;SDS011;6377;42.836;23.998;2023-02-19T04:15:05;36.07;;;21.50;;
12623;SDS011;6377;42.836;23.998;2023-02-19T04:17:36;53.20;;;28.57;;
12623;SDS011;6377;42.836;23.998;2023-02-19T04:20:09;47.50;;;28.57;;
12623;SDS011;6377;42.836;23.998;2023-02-19T04:22:39;54.03;;;30.43;;
12623;SDS011;6377;42.836;23.998;2023-02-19T04:25:07;51.20;;;29.10;;
12623;SDS011;6377;42.836;23.998;2023-02-19T04:27:35;54.87;;;29.37;;
12623;SDS011;6377;42.836;23.998;2023-02-19T04:30:03;51.77;;;29.83;;
12623;SDS011;6377;42.836;23.998;2023-02-19T04:32:32;53.43;;;30.63;;
12623;SDS011;6377;42.836;23.998;2023-02-19T04:34:59;55.80;;;30.60;;
12623;SDS011;6377;42.836;23.998;2023-02-19T04:37:28;89.27;;;47.60;;
12623;SDS011;6377;42.836;23.998;2023-02-19T04:39:55;73.73;;;41.90;;
12623;SDS011;6377;42.836;23.998;2023-02-19T04:42:22;66.93;;;38.23;;
12623;SDS011;6377;42.836;23.998;2023-02-19T04:44:49;57.57;;;32.67;;
12623;SDS011;6377;42.836;23.998;2023-02-19T04:47:16;37.83;;;21.13;;
12623;SDS011;6377;42.836;23.998;2023-02-19T04:49:43;36.40;;;22.03;;
12623;SDS011;6377;42.836;23.998;2023-02-19T04:52:10;36.30;;;21.30;;
12623;SDS011;6377;42.836;23.998;2023-02-19T04:54:39;42.63;;;24.87;;
12623;SDS011;6377;42.836;23.998;2023-02-19T04:57:06;43.63;;;25.63;;
12623;SDS011;6377;42.836;23.998;2023-02-19T04:59:33;49.80;;;30.87;;
12623;SDS011;6377;42.836;23.998;2023-02-19T05:02:01;56.20;;;33.10;;
12623;SDS011;6377;42.836;23.998;2023-02-19T05:04:28;53.83;;;31.13;;
12623;SDS011;6377;42.836;23.998;2023-02-19T05:06:55;53.90;;;31.60;;
12623;SDS011;6377;42.836;23.998;2023-02-19T05:09:22;55.50;;;30.37;;
12623;SDS011;6377;42.836;23.998;2023-02-19T05:11:51;49.70;;;28.30;;
12623;SDS011;6377;42.836;23.998;2023-02-19T05:14:18;51.77;;;29.77;;
12623;SDS011;6377;42.836;23.998;2023-02-19T05:16:45;139.50;;;64.10;;
12623;SDS011;6377;42.836;23.998;2023-02-19T05:19:12;109.80;;;56.87;;
12623;SDS011;6377;42.836;23.998;2023-02-19T05:21:39;112.87;;;60.33;;
12623;SDS011;6377;42.836;23.998;2023-02-19T05:24:06;93.80;;;51.73;;
12623;SDS011;6377;42.836;23.998;2023-02-19T05:26:33;94.30;;;54.70;;
12623;SDS011;6377;42.836;23.998;2023-02-19T05:29:02;99.23;;;54.97;;
12623;SDS011;6377;42.836;23.998;2023-02-19T05:31:30;79.53;;;45.50;;
12623;SDS011;6377;42.836;23.998;2023-02-19T05:33:58;99.67;;;53.27;;
12623;SDS011;6377;42.836;23.998;2023-02-19T05:36:25;114.20;;;59.90;;
12623;SDS011;6377;42.836;23.998;2023-02-19T05:38:52;117.53;;;63.10;;
12623;SDS011;6377;42.836;23.998;2023-02-19T05:41:21;101.97;;;59.03;;
12623;SDS011;6377;42.836;23.998;2023-02-19T05:43:49;96.07;;;55.33;;
12623;SDS011;6377;42.836;23.998;2023-02-19T05:46:19;103.73;;;60.37;;
12623;SDS011;6377;42.836;23.998;2023-02-19T05:48:48;107.33;;;61.67;;
12623;SDS011;6377;42.836;23.998;2023-02-19T05:51:18;145.53;;;79.37;;
12623;SDS011;6377;42.836;23.998;2023-02-19T05:53:46;128.23;;;71.57;;
12623;SDS011;6377;42.836;23.998;2023-02-19T05:56:21;105.87;;;61.10;;
12623;SDS011;6377;42.836;23.998;2023-02-19T05:58:52;102.30;;;63.10;;
12623;SDS011;6377;42.836;23.998;2023-02-19T06:01:22;91.10;;;57.87;;
12623;SDS011;6377;42.836;23.998;2023-02-19T06:03:51;94.03;;;59.27;;
12623;SDS011;6377;42.836;23.998;2023-02-19T06:06:19;100.07;;;60.53;;
12623;SDS011;6377;42.836;23.998;2023-02-19T06:08:47;76.73;;;45.33;;
12623;SDS011;6377;42.836;23.998;2023-02-19T06:11:15;347.27;;;184.50;;
12623;SDS011;6377;42.836;23.998;2023-02-19T06:13:42;201.93;;;105.90;;
12623;SDS011;6377;42.836;23.998;2023-02-19T06:16:10;173.23;;;92.93;;
12623;SDS011;6377;42.836;23.998;2023-02-19T06:18:38;174.70;;;96.27;;
12623;SDS011;6377;42.836;23.998;2023-02-19T06:21:06;193.00;;;107.17;;
12623;SDS011;6377;42.836;23.998;2023-02-19T06:23:35;184.60;;;106.43;;
12623;SDS011;6377;42.836;23.998;2023-02-19T06:26:04;179.80;;;102.87;;
12623;SDS011;6377;42.836;23.998;2023-02-19T06:28:32;171.30;;;97.37;;
12623;SDS011;6377;42.836;23.998;2023-02-19T06:31:00;211.13;;;123.57;;
12623;SDS011;6377;42.836;23.998;2023-02-19T06:33:27;170.97;;;101.90;;
12623;SDS011;6377;42.836;23.998;2023-02-19T06:35:57;172.37;;;105.50;;
12623;SDS011;6377;42.836;23.998;2023-02-19T06:38:26;155.07;;;90.50;;
12623;SDS011;6377;42.836;23.998;2023-02-19T06:40:54;183.17;;;105.23;;
12623;SDS011;6377;42.836;23.998;2023-02-19T06:43:25;375.20;;;215.37;;
12623;SDS011;6377;42.836;23.998;2023-02-19T06:45:52;158.23;;;91.23;;
12623;SDS011;6377;42.836;23.998;2023-02-19T06:48:20;192.17;;;110.17;;
12623;SDS011;6377;42.836;23.998;2023-02-19T06:50:47;109.57;;;65.37;;
12623;SDS011;6377;42.836;23.998;2023-02-19T06:53:16;85.10;;;53.57;;
12623;SDS011;6377;42.836;23.998;2023-02-19T06:55:43;82.87;;;52.03;;
12623;SDS011;6377;42.836;23.998;2023-02-19T06:58:10;75.60;;;46.90;;
12623;SDS011;6377;42.836;23.998;2023-02-19T07:00:37;103.70;;;63.43;;
12623;SDS011;6377;42.836;23.998;2023-02-19T07:03:04;144.93;;;79.70;;
12623;SDS011;6377;42.836;23.998;2023-02-19T07:05:32;179.83;;;103.00;;
12623;SDS011;6377;42.836;23.998;2023-02-19T07:07:59;158.80;;;94.70;;
12623;SDS011;6377;42.836;23.998;2023-02-19T07:10:27;163.33;;;98.90;;
12623;SDS011;6377;42.836;23.998;2023-02-19T07:12:55;133.47;;;83.50;;
12623;SDS011;6377;42.836;23.998;2023-02-19T07:15:22;497.47;;;196.03;;
12623;SDS011;6377;42.836;23.998;2023-02-19T07:17:49;1050.07;;;377.50;;
12623;SDS011;6377;42.836;23.998;2023-02-19T07:20:17;313.43;;;141.17;;
12623;SDS011;6377;42.836;23.998;2023-02-19T07:22:44;235.53;;;117.10;;
12623;SDS011;6377;42.836;23.998;2023-02-19T07:25:12;157.37;;;89.53;;
12623;SDS011;6377;42.836;23.998;2023-02-19T07:27:40;168.13;;;99.70;;
12623;SDS011;6377;42.836;23.998;2023-02-19T07:30:08;157.53;;;91.13;;
12623;SDS011;6377;42.836;23.998;2023-02-19T07:32:39;120.63;;;75.27;;
12623;SDS011;6377;42.836;23.998;2023-02-19T07:35:06;83.20;;;51.90;;
12623;SDS011;6377;42.836;23.998;2023-02-19T07:37:34;82.00;;;51.93;;
12623;SDS011;6377;42.836;23.998;2023-02-19T07:40:01;66.17;;;44.90;;
12623;SDS011;6377;42.836;23.998;2023-02-19T07:42:29;55.07;;;37.50;;
12623;SDS011;6377;42.836;23.998;2023-02-19T07:44:58;72.00;;;46.97;;
12623;SDS011;6377;42.836;23.998;2023-02-19T07:47:25;113.27;;;65.03;;
12623;SDS011;6377;42.836;23.998;2023-02-19T07:49:53;152.37;;;87.97;;
12623;SDS011;6377;42.836;23.998;2023-02-19T07:52:21;134.50;;;78.27;;
12623;SDS011;6377;42.836;23.998;2023-02-19T07:54:48;96.17;;;57.67;;
12623;SDS011;6377;42.836;23.998;2023-02-19T07:57:15;89.67;;;52.60;;
12623;SDS011;6377;42.836;23.998;2023-02-19T07:59:42;79.20;;;49.63;;
12623;SDS011;6377;42.836;23.998;2023-02-19T08:02:13;41.83;;;27.63;;
12623;SDS011;6377;42.836;23.998;2023-02-19T08:04:58;57.03;;;40.60;;
12623;SDS011;6377;42.836;23.998;2023-02-19T08:07:29;54.90;;;38.30;;
12623;SDS011;6377;42.836;23.998;2023-02-19T08:09:58;42.87;;;29.60;;
12623;SDS011;6377;42.836;23.998;2023-02-19T08:12:39;44.70;;;30.50;;
12623;SDS011;6377;42.836;23.998;2023-02-19T08:15:23;38.93;;;25.27;;
12623;SDS011;6377;42.836;23.998;2023-02-19T08:17:52;43.10;;;24.03;;
12623;SDS011;6377;42.836;23.998;2023-02-19T08:20:19;26.93;;;17.97;;
12623;SDS011;6377;42.836;23.998;2023-02-19T08:22:49;29.03;;;19.97;;
12623;SDS011;6377;42.836;23.998;2023-02-19T08:25:17;21.57;;;15.53;;
12623;SDS011;6377;42.836;23.998;2023-02-19T08:27:44;20.20;;;14.30;;
12623;SDS011;6377;42.836;23.998;2023-02-19T08:30:11;27.07;;;19.23;;
12623;SDS011;6377;42.836;23.998;2023-02-19T08:32:42;22.97;;;16.30;;
12623;SDS011;6377;42.836;23.998;2023-02-19T08:35:11;21.50;;;15.43;;
12623;SDS011;6377;42.836;23.998;2023-02-19T08:37:39;25.00;;;15.87;;
12623;SDS011;6377;42.836;23.998;2023-02-19T08:40:06;18.33;;;14.13;;
12623;SDS011;6377;42.836;23.998;2023-02-19T08:42:33;19.53;;;13.60;;
12623;SDS011;6377;42.836;23.998;2023-02-19T08:45:01;17.57;;;13.33;;
12623;SDS011;6377;42.836;23.998;2023-02-19T08:47:28;12.20;;;8.63;;
12623;SDS011;6377;42.836;23.998;2023-02-19T08:49:55;13.80;;;8.53;;
12623;SDS011;6377;42.836;23.998;2023-02-19T08:52:27;15.97;;;8.90;;
12623;SDS011;6377;42.836;23.998;2023-02-19T08:54:54;13.07;;;8.53;;
12623;SDS011;6377;42.836;23.998;2023-02-19T08:57:22;17.40;;;13.53;;
12623;SDS011;6377;42.836;23.998;2023-02-19T08:59:49;5.03;;;3.97;;
12623;SDS011;6377;42.836;23.998;2023-02-19T09:02:17;7.03;;;4.50;;
12623;SDS011;6377;42.836;23.998;2023-02-19T09:04:44;5.60;;;3.63;;
12623;SDS011;6377;42.836;23.998;2023-02-19T09:07:11;8.70;;;3.60;;
12623;SDS011;6377;42.836;23.998;2023-02-19T09:09:40;8.17;;;4.23;;
12623;SDS011;6377;42.836;23.998;2023-02-19T09:12:08;6.77;;;4.93;;
12623;SDS011;6377;42.836;23.998;2023-02-19T09:14:37;4.30;;;3.10;;
12623;SDS011;6377;42.836;23.998;2023-02-19T09:17:04;5.17;;;4.10;;
12623;SDS011;6377;42.836;23.998;2023-02-19T09:19:33;11.37;;;8.30;;
12623;SDS011;6377;42.836;23.998;2023-02-19T09:22:01;28.37;;;16.30;;
12623;SDS011;6377;42.836;23.998;2023-02-19T09:24:29;19.10;;;12.53;;
12623;SDS011;6377;42.836;23.998;2023-02-19T09:26:58;7.47;;;5.33;;
12623;SDS011;6377;42.836;23.998;2023-02-19T09:29:26;7.17;;;4.80;;
12623;SDS011;6377;42.836;23.998;2023-02-19T09:31:57;5.00;;;3.80;;
12623;SDS011;6377;42.836;23.998;2023-02-19T09:34:25;4.20;;;3.20;;
12623;SDS011;6377;42.836;23.998;2023-02-19T09:36:54;13.03;;;7.80;;
12623;SDS011;6377;42.836;23.998;2023-02-19T09:39:21;13.60;;;9.43;;
12623;SDS011;6377;42.836;23.998;2023-02-19T09:41:49;7.03;;;4.87;;
12623;SDS011;6377;42.836;23.998;2023-02-19T09:44:23;7.63;;;3.90;;
12623;SDS011;6377;42.836;23.998;2023-02-19T09:46:54;8.27;;;6.10;;
12623;SDS011;6377;42.836;23.998;2023-02-19T09:49:23;8.07;;;5.57;;
12623;SDS011;6377;42.836;23.998;2023-02-19T09:51:59;7.63;;;5.90;;
12623;SDS011;6377;42.836;23.998;2023-02-19T09:54:35;6.57;;;4.80;;
12623;SDS011;6377;42.836;23.998;2023-02-19T09:57:04;8.60;;;6.47;;
12623;SDS011;6377;42.836;23.998;2023-02-19T09:59:41;7.57;;;5.60;;
12623;SDS011;6377;42.836;23.998;2023-02-19T10:02:12;5.37;;;4.33;;
12623;SDS011;6377;42.836;23.998;2023-02-19T10:04:42;6.20;;;5.23;;
12623;SDS011;6377;42.836;23.998;2023-02-19T10:12:25;7.17;;;5.20;;
12623;SDS011;6377;42.836;23.998;2023-02-19T10:14:56;6.23;;;4.93;;
12623;SDS011;6377;42.836;23.998;2023-02-19T10:17:28;8.53;;;4.20;;
12623;SDS011;6377;42.836;23.998;2023-02-19T10:19:59;11.53;;;7.13;;
12623;SDS011;6377;42.836;23.998;2023-02-19T10:22:29;14.33;;;8.73;;
12623;SDS011;6377;42.836;23.998;2023-02-19T10:39:19;13.00;;;8.40;;
12623;SDS011;6377;42.836;23.998;2023-02-19T10:42:00;12.30;;;9.03;;
12623;SDS011;6377;42.836;23.998;2023-02-19T10:44:29;12.23;;;9.27;;
12623;SDS011;6377;42.836;23.998;2023-02-19T10:47:01;14.80;;;10.00;;
12623;SDS011;6377;42.836;23.998;2023-02-19T10:49:30;13.05;;;9.75;;
12623;SDS011;6377;42.836;23.998;2023-02-19T10:52:03;13.83;;;10.33;;
12623;SDS011;6377;42.836;23.998;2023-02-19T10:54:43;13.37;;;10.23;;
12623;SDS011;6377;42.836;23.998;2023-02-19T10:57:24;11.30;;;9.13;;
12623;SDS011;6377;42.836;23.998;2023-02-19T10:59:57;12.50;;;9.50;;
12623;SDS011;6377;42.836;23.998;2023-02-19T11:02:26;15.00;;;9.10;;
12623;SDS011;6377;42.836;23.998;2023-02-19T11:05:03;12.80;;;6.03;;
12623;SDS011;6377;42.836;23.998;2023-02-19T11:07:32;11.87;;;7.43;;
12623;SDS011;6377;42.836;23.998;2023-02-19T11:10:03;6.87;;;5.07;;
12623;SDS011;6377;42.836;23.998;2023-02-19T11:12:33;19.13;;;10.23;;
12623;SDS011;6377;42.836;23.998;2023-02-19T11:15:12;10.13;;;7.70;;
12623;SDS011;6377;42.836;23.998;2023-02-19T11:17:53;12.03;;;6.90;;
12623;SDS011;6377;42.836;23.998;2023-02-19T11:20:21;31.33;;;20.07;;
12623;SDS011;6377;42.836;23.998;2023-02-19T11:22:48;9.10;;;6.23;;
12623;SDS011;6377;42.836;23.998;2023-02-19T11:25:20;18.58;;;10.02;;
12623;SDS011;6377;42.836;23.998;2023-02-19T11:27:53;12.63;;;8.03;;
12623;SDS011;6377;42.836;23.998;2023-02-19T11:30:33;9.68;;;5.53;;
12623;SDS011;6377;42.836;23.998;2023-02-19T11:38:50;27.13;;;17.60;;
12623;SDS011;6377;42.836;23.998;2023-02-19T11:41:20;8.47;;;5.20;;
12623;SDS011;6377;42.836;23.998;2023-02-19T11:44:01;105.47;;;53.25;;
12623;SDS011;6377;42.836;23.998;2023-02-19T11:46:40;9.05;;;7.38;;
12623;SDS011;6377;42.836;23.998;2023-02-19T11:49:18;8.50;;;6.57;;
12623;SDS011;6377;42.836;23.998;2023-02-19T11:52:01;26.87;;;18.37;;
12623;SDS011;6377;42.836;23.998;2023-02-19T11:54:45;75.75;;;40.70;;
12623;SDS011;6377;42.836;23.998;2023-02-19T11:57:24;24.58;;;18.27;;
12623;SDS011;6377;42.836;23.998;2023-02-19T12:00:01;10.68;;;7.07;;
12623;SDS011;6377;42.836;23.998;2023-02-19T12:02:49;11.32;;;8.32;;
12623;SDS011;6377;42.836;23.998;2023-02-19T12:05:42;13.88;;;8.93;;
12623;SDS011;6377;42.836;23.998;2023-02-19T12:08:29;43.53;;;24.20;;
12623;SDS011;6377;42.836;23.998;2023-02-19T12:11:20;15.48;;;8.95;;
12623;SDS011;6377;42.836;23.998;2023-02-19T12:14:02;57.53;;;29.85;;
12623;SDS011;6377;42.836;23.998;2023-02-19T12:16:46;19.23;;;12.13;;
12623;SDS011;6377;42.836;23.998;2023-02-19T12:19:29;17.65;;;11.00;;
12623;SDS011;6377;42.836;23.998;2023-02-19T12:25:24;11.60;;;5.80;;
12623;SDS011;6377;42.836;23.998;2023-02-19T12:31:07;13.48;;;8.70;;
12623;SDS011;6377;42.836;23.998;2023-02-19T12:33:59;10.07;;;5.53;;
12623;SDS011;6377;42.836;23.998;2023-02-19T12:36:45;6.18;;;5.10;;
12623;SDS011;6377;42.836;23.998;2023-02-19T12:39:25;8.88;;;6.65;;
12623;SDS011;6377;42.836;23.998;2023-02-19T12:42:06;16.17;;;12.77;;
12623;SDS011;6377;42.836;23.998;2023-02-19T12:44:40;66.57;;;38.65;;
12623;SDS011;6377;42.836;23.998;2023-02-19T12:47:15;18.83;;;11.38;;
12623;SDS011;6377;42.836;23.998;2023-02-19T12:49:47;8.07;;;5.10;;
12623;SDS011;6377;42.836;23.998;2023-02-19T12:52:22;6.25;;;5.05;;
12623;SDS011;6377;42.836;23.998;2023-02-19T12:54:52;7.53;;;4.72;;
12623;SDS011;6377;42.836;23.998;2023-02-19T12:57:25;19.10;;;9.75;;
12623;SDS011;6377;42.836;23.998;2023-02-19T12:59:56;4.95;;;3.53;;
12623;SDS011;6377;42.836;23.998;2023-02-19T13:02:34;7.20;;;4.18;;
12623;SDS011;6377;42.836;23.998;2023-02-19T13:05:12;7.32;;;5.45;;
12623;SDS011;6377;42.836;23.998;2023-02-19T13:07:47;5.80;;;4.80;;
12623;SDS011;6377;42.836;23.998;2023-02-19T13:10:24;8.40;;;5.00;;
12623;SDS011;6377;42.836;23.998;2023-02-19T13:12:57;5.33;;;4.30;;
12623;SDS011;6377;42.836;23.998;2023-02-19T13:15:30;7.03;;;5.60;;
12623;SDS011;6377;42.836;23.998;2023-02-19T13:18:04;4.87;;;3.83;;
12623;SDS011;6377;42.836;23.998;2023-02-19T13:23:10;40.73;;;24.10;;
12623;SDS011;6377;42.836;23.998;2023-02-19T13:26:12;22.47;;;14.87;;
12623;SDS011;6377;42.836;23.998;2023-02-19T13:28:55;6.20;;;5.03;;
12623;SDS011;6377;42.836;23.998;2023-02-19T13:31:40;6.27;;;4.53;;
12623;SDS011;6377;42.836;23.998;2023-02-19T13:34:22;10.73;;;7.37;;
12623;SDS011;6377;42.836;23.998;2023-02-19T13:36:57;13.10;;;8.97;;
12623;SDS011;6377;42.836;23.998;2023-02-19T13:39:26;4.87;;;4.23;;
12623;SDS011;6377;42.836;23.998;2023-02-19T13:41:53;5.70;;;4.87;;
12623;SDS011;6377;42.836;23.998;2023-02-19T13:44:23;6.87;;;4.67;;
12623;SDS011;6377;42.836;23.998;2023-02-19T13:46:53;8.50;;;6.33;;
12623;SDS011;6377;42.836;23.998;2023-02-19T14:01:18;50.77;;;28.37;;
12623;SDS011;6377;42.836;23.998;2023-02-19T14:04:07;174.50;;;93.70;;
12623;SDS011;6377;42.836;23.998;2023-02-19T14:09:46;61.37;;;38.37;;
12623;SDS011;6377;42.836;23.998;2023-02-19T14:12:17;53.27;;;35.67;;
12623;SDS011;6377;42.836;23.998;2023-02-19T14:14:45;39.20;;;26.37;;
12623;SDS011;6377;42.836;23.998;2023-02-19T14:20:38;3.90;;;2.87;;
12623;SDS011;6377;42.836;23.998;2023-02-19T14:23:12;5.13;;;3.40;;
12623;SDS011;6377;42.836;23.998;2023-02-19T14:25:44;4.30;;;3.50;;
12623;SDS011;6377;42.836;23.998;2023-02-19T14:28:30;18.33;;;5.00;;
12623;SDS011;6377;42.836;23.998;2023-02-19T14:31:08;5.23;;;4.03;;
12623;SDS011;6377;42.836;23.998;2023-02-19T14:33:43;7.33;;;4.40;;
12623;SDS011;6377;42.836;23.998;2023-02-19T14:36:15;8.80;;;5.00;;
12623;SDS011;6377;42.836;23.998;2023-02-19T14:38:47;7.77;;;6.57;;
12623;SDS011;6377;42.836;23.998;2023-02-19T14:41:19;8.33;;;5.30;;
12623;SDS011;6377;42.836;23.998;2023-02-19T14:43:48;10.13;;;5.90;;
12623;SDS011;6377;42.836;23.998;2023-02-19T14:46:20;6.33;;;5.20;;
12623;SDS011;6377;42.836;23.998;2023-02-19T14:48:53;12.73;;;6.87;;
12623;SDS011;6377;42.836;23.998;2023-02-19T14:51:25;10.43;;;8.20;;
12623;SDS011;6377;42.836;23.998;2023-02-19T14:53:58;16.40;;;11.13;;
12623;SDS011;6377;42.836;23.998;2023-02-19T14:56:32;19.83;;;11.47;;
12623;SDS011;6377;42.836;23.998;2023-02-19T14:59:04;19.47;;;12.37;;
12623;SDS011;6377;42.836;23.998;2023-02-19T15:01:33;16.83;;;14.40;;
12623;SDS011;6377;42.836;23.998;2023-02-19T15:04:01;19.43;;;15.77;;
12623;SDS011;6377;42.836;23.998;2023-02-19T15:06:28;22.97;;;17.30;;
12623;SDS011;6377;42.836;23.998;2023-02-19T15:08:58;20.47;;;13.80;;
12623;SDS011;6377;42.836;23.998;2023-02-19T15:11:28;38.03;;;25.23;;
12623;SDS011;6377;42.836;23.998;2023-02-19T15:14:00;61.00;;;38.57;;
12623;SDS011;6377;42.836;23.998;2023-02-19T15:16:33;52.50;;;33.13;;
12623;SDS011;6377;42.836;23.998;2023-02-19T15:19:04;39.30;;;20.00;;
12623;SDS011;6377;42.836;23.998;2023-02-19T15:21:35;28.33;;;18.87;;
12623;SDS011;6377;42.836;23.998;2023-02-19T15:24:05;20.60;;;12.53;;
12623;SDS011;6377;42.836;23.998;2023-02-19T15:26:35;19.57;;;11.40;;
12623;SDS011;6377;42.836;23.998;2023-02-19T15:29:08;11.70;;;8.50;;
12623;SDS011;6377;42.836;23.998;2023-02-19T15:31:43;15.27;;;9.47;;
12623;SDS011;6377;42.836;23.998;2023-02-19T15:34:20;26.40;;;17.87;;
12623;SDS011;6377;42.836;23.998;2023-02-19T15:36:50;23.77;;;15.20;;
12623;SDS011;6377;42.836;23.998;2023-02-19T15:39:21;20.90;;;14.30;;
12623;SDS011;6377;42.836;23.998;2023-02-19T15:41:53;17.70;;;12.43;;
12623;SDS011;6377;42.836;23.998;2023-02-19T15:47:17;25.33;;;17.77;;